Time;durP1;ratioP1;P1;durP2;ratioP2;P2;SDS_P1;SDS_P2;PMS_P1;PMS_P2;Temp;Humidity;BMP_temperature;BMP_pressure;BME280_temperature;BME280_humidity;BME280_pressure;Samples;Min_cycle;Max_cycle;Signal;HPM_P1;HPM_P2
2023/01/31 00:00:51;;;;;;;15.30;1.70;;;;;;;4.30;85.22;100816.81;5052917;28;20498;-70
2023/01/31 00:03:17;;;;;;;12.70;1.67;;;;;;;4.26;85.90;100837.16;5052573;28;21011;-71
2023/01/31 00:05:44;;;;;;;9.60;1.40;;;;;;;4.16;86.34;100839.72;5052905;28;20445;-70
2023/01/31 00:08:11;;;;;;;11.83;1.90;;;;;;;4.13;87.01;100834.88;5052803;28;20589;-70
2023/01/31 00:10:39;;;;;;;9.70;1.10;;;;;;;4.17;86.77;100833.31;5052776;28;20466;-70
2023/01/31 00:13:06;;;;;;;5.30;1.50;;;;;;;4.20;86.52;100834.66;5053674;28;20448;-70
2023/01/31 00:15:32;;;;;;;8.67;1.60;;;;;;;4.16;86.67;100845.09;5056752;28;20529;-70
2023/01/31 00:17:59;;;;;;;12.30;2.20;;;;;;;4.09;87.50;100855.19;5056729;28;20536;-71
2023/01/31 00:20:25;;;;;;;21.97;1.97;;;;;;;4.06;86.75;100861.03;5056604;28;20488;-70
2023/01/31 00:22:52;;;;;;;15.23;1.70;;;;;;;4.13;86.42;100842.09;5056273;28;20986;-71
2023/01/31 00:25:19;;;;;;;5.43;1.00;;;;;;;4.14;85.99;100852.56;5056583;28;20517;-70
2023/01/31 00:27:47;;;;;;;16.27;1.70;;;;;;;4.07;86.36;100851.13;5056358;28;20481;-70
2023/01/31 00:30:13;;;;;;;8.70;1.57;;;;;;;4.08;86.97;100856.25;5056186;28;20588;-71
2023/01/31 00:32:40;;;;;;;8.07;1.67;;;;;;;4.08;86.39;100852.78;5056078;28;20548;-70
2023/01/31 00:35:07;;;;;;;12.83;1.00;;;;;;;4.09;86.29;100855.19;5056098;28;20949;-70
2023/01/31 00:37:34;;;;;;;20.87;2.30;;;;;;;4.20;85.74;100864.94;5056296;28;20537;-70
2023/01/31 00:40:00;;;;;;;10.80;1.70;;;;;;;4.20;85.88;100867.63;5055836;28;20545;-70
2023/01/31 00:42:27;;;;;;;17.80;1.40;;;;;;;4.13;85.89;100877.75;5056217;28;20473;-70
2023/01/31 00:44:55;;;;;;;5.83;1.67;;;;;;;4.15;86.20;100891.69;5055803;28;20970;-70
2023/01/31 00:47:21;;;;;;;14.13;1.80;;;;;;;4.17;85.81;100873.50;5055839;28;20529;-71
2023/01/31 00:49:48;;;;;;;8.37;1.10;;;;;;;4.14;86.78;100887.41;5055696;28;20472;-71
2023/01/31 00:52:14;;;;;;;11.43;1.10;;;;;;;4.16;86.91;100901.38;5055948;28;20445;-70
2023/01/31 00:54:41;;;;;;;5.90;0.90;;;;;;;4.21;86.16;100906.81;5055962;28;20444;-70
2023/01/31 00:57:08;;;;;;;5.63;0.90;;;;;;;4.25;85.82;100902.56;5055907;28;20834;-70
2023/01/31 00:59:34;;;;;;;7.83;1.40;;;;;;;4.28;85.78;100902.03;5055509;28;20444;-70
2023/01/31 01:02:02;;;;;;;8.50;1.53;;;;;;;4.28;85.47;100912.78;5055902;28;20438;-70
2023/01/31 01:04:29;;;;;;;9.20;1.17;;;;;;;4.34;85.51;100910.13;5055837;28;20889;-70
2023/01/31 01:06:56;;;;;;;11.40;1.27;;;;;;;4.36;85.22;100914.19;5055398;28;20484;-70
2023/01/31 01:09:22;;;;;;;5.27;1.07;;;;;;;4.36;85.81;100924.13;5055609;28;20481;-70
2023/01/31 01:11:49;;;;;;;7.13;0.97;;;;;;;4.41;84.85;100926.84;5055319;28;20466;-70
2023/01/31 01:14:16;;;;;;;11.43;1.10;;;;;;;4.41;85.01;100938.38;5055273;28;20448;-70
2023/01/31 01:16:43;;;;;;;17.70;1.53;;;;;;;4.49;84.28;100937.13;5055515;28;20525;-70
2023/01/31 01:19:15;;;;;;;7.70;1.30;;;;;;;4.55;84.01;100939.59;5055452;28;20439;-70
2023/01/31 01:21:43;;;;;;;12.83;1.43;;;;;;;4.53;83.71;100951.66;5055149;28;20549;-70
2023/01/31 01:24:13;;;;;;;8.57;1.23;;;;;;;4.54;84.59;100958.66;5055392;28;20880;-70
2023/01/31 01:26:40;;;;;;;9.50;1.60;;;;;;;4.57;83.72;100947.44;5055385;28;20422;-70
2023/01/31 01:29:07;;;;;;;6.00;1.40;;;;;;;4.61;83.61;100945.88;5055283;28;20508;-70
2023/01/31 01:31:33;;;;;;;9.83;1.47;;;;;;;4.65;83.60;100944.28;5054858;28;20481;-70
2023/01/31 01:34:03;;;;;;;8.93;1.43;;;;;;;4.64;83.28;100949.91;5054985;28;20940;-71
2023/01/31 01:36:33;;;;;;;11.43;2.20;;;;;;;4.53;83.75;100955.16;5055151;28;20555;-70
2023/01/31 01:38:59;;;;;;;6.03;1.20;;;;;;;4.59;83.87;100949.84;5055104;28;20443;-70
2023/01/31 01:41:26;;;;;;;5.10;1.20;;;;;;;4.61;83.94;100953.91;5054661;28;20979;-70
2023/01/31 01:43:54;;;;;;;6.27;1.07;;;;;;;4.59;84.07;100966.75;5054825;28;20446;-71
2023/01/31 01:46:26;;;;;;;8.13;1.70;;;;;;;4.61;83.74;100956.59;5055074;28;20448;-70
2023/01/31 01:48:58;;;;;;;5.70;1.60;;;;;;;4.61;83.60;100961.16;5054985;28;20557;-71
2023/01/31 01:51:24;;;;;;;5.10;1.13;;;;;;;4.60;84.22;100968.38;5054559;28;20843;-70
2023/01/31 01:53:59;;;;;;;16.50;1.23;;;;;;;4.60;84.01;100971.03;5054868;28;20450;-71
2023/01/31 01:56:31;;;;;;;5.43;1.33;;;;;;;4.58;84.82;100981.22;5054547;28;20942;-70
2023/01/31 01:59:05;;;;;;;9.07;0.90;;;;;;;4.50;84.95;100979.00;5054463;28;20440;-70
2023/01/31 02:01:35;;;;;;;10.60;1.40;;;;;;;4.49;85.94;100988.09;5054257;28;21035;-70
2023/01/31 02:04:05;;;;;;;12.90;1.40;;;;;;;4.53;85.38;100989.22;5054679;28;20442;-70
2023/01/31 02:06:32;;;;;;;5.40;1.07;;;;;;;4.53;85.30;100999.94;5054236;28;21014;-70
2023/01/31 02:09:00;;;;;;;18.60;1.43;;;;;;;4.56;84.91;100994.09;5054462;28;20478;-70
2023/01/31 02:11:30;;;;;;;6.90;1.17;;;;;;;4.56;84.79;100994.09;5054435;28;20837;-70
2023/01/31 02:14:01;;;;;;;8.00;1.67;;;;;;;4.59;84.29;100990.91;5054473;28;20484;-70
2023/01/31 02:16:28;;;;;;;11.77;1.67;;;;;;;4.50;84.74;101006.63;5054507;28;20429;-70
2023/01/31 02:18:56;;;;;;;15.30;1.70;;;;;;;4.43;85.18;101010.56;5054386;28;20533;-70
2023/01/31 02:21:49;;;;;;;14.90;1.80;;;;;;;4.41;84.88;101013.47;5054325;28;20476;-70
2023/01/31 02:25:01;;;;;;;4.97;1.03;;;;;;;4.39;84.63;101020.16;5054357;28;20460;-70
2023/01/31 02:28:04;;;;;;;4.83;0.90;;;;;;;4.29;85.48;101023.50;5053901;28;20433;-69
2023/01/31 02:30:57;;;;;;;14.57;1.60;;;;;;;4.22;85.85;101023.69;5053608;28;20474;-70
2023/01/31 02:33:31;;;;;;;5.33;1.43;;;;;;;4.11;87.35;101024.59;5054139;28;20533;-70
2023/01/31 02:36:08;;;;;;;12.60;1.13;;;;;;;4.10;86.71;101035.59;5053433;28;20900;-71
2023/01/31 02:38:50;;;;;;;7.93;1.57;;;;;;;3.96;88.73;101029.75;5054054;28;20422;-70
2023/01/31 02:41:26;;;;;;;5.07;0.93;;;;;;;3.94;87.37;101024.66;5053926;28;20513;-70
2023/01/31 02:46:52;;;;;;;15.00;1.73;;;;;;;3.92;87.92;101023.28;5053774;28;20541;-70
2023/01/31 02:49:34;;;;;;;9.30;1.90;;;;;;;3.79;88.97;101024.41;5053469;28;20967;-70
2023/01/31 02:57:44;;;;;;;7.30;1.37;;;;;;;3.85;88.80;101030.66;5053639;28;20407;-70
2023/01/31 03:00:13;;;;;;;10.67;1.43;;;;;;;3.75;89.34;101026.75;5053641;28;20468;-70
2023/01/31 03:02:40;;;;;;;9.57;1.10;;;;;;;3.76;89.33;101031.09;5053327;28;20508;-70
2023/01/31 03:05:13;;;;;;;5.60;0.97;;;;;;;3.77;89.54;101034.59;5053172;28;20525;-70
2023/01/31 03:07:42;;;;;;;4.67;0.90;;;;;;;3.73;90.02;101031.56;5053625;28;20528;-70
2023/01/31 03:10:19;;;;;;;9.30;1.47;;;;;;;3.75;89.93;101034.00;5053040;28;20995;-70
2023/01/31 03:12:57;;;;;;;7.77;1.17;;;;;;;3.66;90.51;101032.78;5053504;28;20430;-71
2023/01/31 03:18:38;;;;;;;7.00;1.00;;;;;;;3.64;90.80;101021.53;5053290;28;20406;-70
2023/01/31 03:21:10;;;;;;;6.20;1.43;;;;;;;3.65;90.71;101025.81;5053051;28;20458;-70
2023/01/31 03:23:39;;;;;;;6.50;1.10;;;;;;;3.56;91.07;101022.72;5053506;28;20441;-70
2023/01/31 03:26:07;;;;;;;10.83;1.53;;;;;;;3.54;91.55;101019.47;5053311;28;20548;-70
2023/01/31 03:28:38;;;;;;;6.27;1.13;;;;;;;3.54;91.46;101027.50;5053226;28;20477;-70
2023/01/31 03:31:10;;;;;;;6.33;1.00;;;;;;;3.50;91.70;101029.88;5062359;22;20493;-79
2023/01/31 03:33:39;;;;;;;9.33;1.63;;;;;;;3.43;92.06;101036.44;5059331;28;20530;-78
2023/01/31 03:36:17;;;;;;;5.90;1.40;;;;;;;3.45;92.26;101039.66;5059050;28;20451;-78
2023/01/31 03:38:55;;;;;;;5.60;0.83;;;;;;;3.47;92.63;101040.25;5059651;28;20480;-78
2023/01/31 03:41:29;;;;;;;9.13;0.83;;;;;;;3.42;92.90;101048.22;5059272;28;20481;-79
2023/01/31 03:44:01;;;;;;;7.43;1.37;;;;;;;3.47;92.71;101041.06;5059973;28;20553;-78
2023/01/31 03:46:34;;;;;;;15.40;1.17;;;;;;;3.47;92.67;101056.31;5059514;28;20462;-77
2023/01/31 03:49:07;;;;;;;5.30;1.23;;;;;;;3.46;93.02;101054.69;5058007;28;20510;-77
2023/01/31 03:51:38;;;;;;;8.10;1.40;;;;;;;3.49;92.56;101062.22;5059867;28;20431;-78
2023/01/31 03:54:08;;;;;;;12.30;1.40;;;;;;;3.38;93.44;101052.41;5057770;28;20564;-77
2023/01/31 03:56:40;;;;;;;9.33;1.20;;;;;;;3.41;93.17;101066.13;5058973;28;20439;-77
2023/01/31 03:59:10;;;;;;;10.70;1.33;;;;;;;3.41;93.21;101067.97;5058359;28;20505;-77
2023/01/31 04:01:42;;;;;;;16.30;1.27;;;;;;;3.33;93.90;101068.41;5061805;28;20448;-79
2023/01/31 04:04:14;;;;;;;4.40;0.93;;;;;;;3.33;94.17;101060.38;5064544;28;20549;-78
2023/01/31 04:06:42;;;;;;;6.10;1.17;;;;;;;3.36;94.28;101075.91;5063329;28;20458;-78
2023/01/31 04:09:09;;;;;;;9.73;1.17;;;;;;;3.40;94.30;101074.38;5063953;28;20550;-78
2023/01/31 04:11:38;;;;;;;13.97;2.00;;;;;;;3.33;94.18;101073.75;5063065;28;20489;-78
2023/01/31 04:14:05;;;;;;;5.13;1.00;;;;;;;3.29;95.03;101076.91;5063337;28;20454;-79
2023/01/31 04:16:32;;;;;;;13.07;1.73;;;;;;;3.37;94.99;101075.72;5061920;28;20540;-77
2023/01/31 04:18:59;;;;;;;11.70;1.80;;;;;;;3.42;95.14;101075.78;5059944;28;20481;-78
2023/01/31 04:21:26;;;;;;;4.37;0.77;;;;;;;3.41;95.15;101073.34;5061884;28;20450;-79
2023/01/31 04:23:54;;;;;;;6.33;1.20;;;;;;;3.42;95.16;101061.59;5063435;28;20462;-78
2023/01/31 04:26:20;;;;;;;6.80;1.60;;;;;;;3.44;95.07;101071.00;5064062;28;20434;-78
2023/01/31 04:28:47;;;;;;;9.03;1.43;;;;;;;3.43;95.17;101065.88;5065045;28;20943;-79
2023/01/31 04:31:14;;;;;;;6.07;1.43;;;;;;;3.46;95.37;101066.22;5063993;28;20454;-79
2023/01/31 04:33:40;;;;;;;14.23;1.63;;;;;;;3.34;96.37;101070.00;5059555;28;20914;-77
2023/01/31 04:36:08;;;;;;;7.73;1.10;;;;;;;3.34;96.13;101080.72;5060478;28;20533;-77
2023/01/31 04:38:34;;;;;;;9.60;1.23;;;;;;;3.38;96.03;101073.84;5059663;28;21012;-78
2023/01/31 04:41:02;;;;;;;12.50;0.83;;;;;;;3.35;96.38;101093.06;5061632;28;20803;-78
2023/01/31 04:43:29;;;;;;;14.40;1.40;;;;;;;3.33;96.69;101100.53;5061842;28;20548;-78
2023/01/31 04:45:56;;;;;;;7.43;1.50;;;;;;;3.40;96.24;101093.94;5061441;28;20529;-78
2023/01/31 04:48:22;;;;;;;8.67;0.87;;;;;;;3.44;96.25;101100.44;5062066;28;20430;-78
2023/01/31 04:50:49;;;;;;;10.50;1.20;;;;;;;3.53;95.96;101107.03;5061495;28;20482;-77
2023/01/31 04:53:15;;;;;;;6.00;1.03;;;;;;;3.57;95.83;101114.59;5061455;28;20466;-77
2023/01/31 04:55:42;;;;;;;13.73;1.07;;;;;;;3.57;95.55;101110.03;5061651;28;20481;-77
2023/01/31 04:58:10;;;;;;;11.20;1.00;;;;;;;3.55;96.05;101112.16;5061196;28;20442;-78
2023/01/31 05:00:37;;;;;;;10.20;1.50;;;;;;;3.63;96.09;101106.41;5060761;28;20441;-78
2023/01/31 05:03:03;;;;;;;8.20;1.33;;;;;;;3.62;96.41;101117.34;5061665;28;20560;-78
2023/01/31 05:05:30;;;;;;;12.40;1.60;;;;;;;3.74;96.05;101113.56;5061189;28;20478;-78
2023/01/31 05:07:57;;;;;;;6.20;0.80;;;;;;;3.70;96.10;101103.56;5062144;28;20460;-78
2023/01/31 05:10:24;;;;;;;7.37;1.50;;;;;;;3.74;96.26;101099.34;5061114;28;20484;-79
2023/01/31 05:12:50;;;;;;;13.43;1.50;;;;;;;3.73;96.44;101103.91;5062480;28;21017;-78
2023/01/31 05:15:19;;;;;;;4.10;0.80;;;;;;;3.76;96.23;101103.44;5062039;28;20469;-78
2023/01/31 05:17:52;;;;;;;5.77;1.23;;;;;;;3.82;96.08;101106.19;5062799;28;20514;-78
2023/01/31 05:20:18;;;;;;;6.03;1.20;;;;;;;3.85;95.67;101103.00;5062692;28;20418;-78
2023/01/31 05:22:47;;;;;;;4.37;0.60;;;;;;;3.88;95.61;101106.00;5062699;28;20533;-79
2023/01/31 05:25:13;;;;;;;7.00;1.30;;;;;;;3.97;95.17;101119.81;5061535;28;20435;-79
2023/01/31 05:27:40;;;;;;;9.70;1.70;;;;;;;4.04;95.00;101115.13;5062558;28;20461;-79
2023/01/31 05:30:08;;;;;;;4.10;0.70;;;;;;;4.03;94.42;101111.63;5063094;28;20525;-78
2023/01/31 05:32:38;;;;;;;8.87;1.53;;;;;;;4.04;94.39;101115.94;5062074;28;20481;-78
2023/01/31 05:35:05;;;;;;;6.00;1.57;;;;;;;4.07;94.55;101108.44;5063524;28;20447;-79
2023/01/31 05:37:32;;;;;;;5.03;1.10;;;;;;;4.14;94.36;101112.59;5062180;28;20435;-78
2023/01/31 05:39:59;;;;;;;7.43;1.13;;;;;;;4.19;93.71;101115.34;5062845;28;20536;-79
2023/01/31 05:42:25;;;;;;;4.07;0.70;;;;;;;4.26;93.43;101117.88;5062000;28;20453;-78
2023/01/31 05:44:52;;;;;;;11.83;2.03;;;;;;;4.29;93.45;101120.88;5062915;28;20965;-79
2023/01/31 05:47:19;;;;;;;7.40;1.00;;;;;;;4.27;93.70;101114.13;5061938;28;20512;-79
2023/01/31 05:49:46;;;;;;;4.37;0.73;;;;;;;4.30;93.54;101119.00;5060609;28;20569;-77
2023/01/31 05:52:13;;;;;;;8.00;1.00;;;;;;;4.34;93.89;101113.94;5056713;28;20532;-77
2023/01/31 05:54:40;;;;;;;6.27;1.70;;;;;;;4.22;94.41;101114.84;5056838;28;20446;-77
2023/01/31 05:57:07;;;;;;;17.93;1.70;;;;;;;4.26;94.54;101132.09;5056906;28;20534;-77
2023/01/31 05:59:33;;;;;;;7.33;1.63;;;;;;;4.26;94.46;101134.75;5057060;28;20442;-77
2023/01/31 06:02:00;;;;;;;6.67;1.30;;;;;;;4.26;95.05;101139.31;5058134;28;21043;-77
2023/01/31 06:04:26;;;;;;;7.73;1.30;;;;;;;4.30;94.41;101127.84;5058094;28;20470;-77
2023/01/31 06:06:54;;;;;;;14.07;1.87;;;;;;;4.41;93.90;101128.81;5059326;28;20460;-78
2023/01/31 06:09:21;;;;;;;8.70;1.57;;;;;;;4.41;94.21;101136.84;5058463;28;20532;-77
2023/01/31 06:11:48;;;;;;;7.80;1.70;;;;;;;4.47;93.83;101140.41;5061345;28;20985;-79
2023/01/31 06:14:14;;;;;;;7.07;1.17;;;;;;;4.44;94.03;101133.69;5061937;28;20982;-78
2023/01/31 06:16:41;;;;;;;9.50;1.37;;;;;;;4.43;94.17;101140.13;5062823;28;20470;-78
2023/01/31 06:19:08;;;;;;;6.63;1.23;;;;;;;4.44;94.25;101146.28;5062162;28;20545;-79
2023/01/31 06:21:34;;;;;;;16.23;1.70;;;;;;;4.43;93.82;101148.16;5060272;28;20464;-78
2023/01/31 06:24:03;;;;;;;14.93;1.33;;;;;;;4.45;94.05;101153.28;5061581;28;20513;-79
2023/01/31 06:26:29;;;;;;;6.50;1.20;;;;;;;4.47;94.01;101156.50;5062387;28;20465;-79
2023/01/31 06:28:56;;;;;;;11.13;1.57;;;;;;;4.48;94.25;101160.84;5060137;28;20447;-78
2023/01/31 06:31:22;;;;;;;8.50;1.40;;;;;;;4.49;94.07;101151.72;5057929;28;20577;-77
2023/01/31 06:33:49;;;;;;;13.77;2.13;;;;;;;4.47;94.22;101160.03;5057454;28;20978;-77
2023/01/31 06:36:16;;;;;;;6.03;1.00;;;;;;;4.46;94.55;101154.88;5056695;28;20509;-77
2023/01/31 06:38:43;;;;;;;9.60;1.30;;;;;;;4.53;94.16;101152.84;5057422;28;20489;-77
2023/01/31 06:41:11;;;;;;;7.20;1.60;;;;;;;4.50;94.47;101162.19;5056829;28;20438;-78
2023/01/31 06:43:38;;;;;;;7.83;0.87;;;;;;;4.56;94.82;101160.41;5056604;28;20478;-78
2023/01/31 06:46:05;;;;;;;7.13;0.90;;;;;;;4.58;95.16;101160.97;5057153;28;21022;-78
2023/01/31 06:48:31;;;;;;;4.17;0.63;;;;;;;4.63;95.12;101158.34;5057969;28;20473;-78
2023/01/31 06:50:58;;;;;;;8.83;1.73;;;;;;;4.49;96.17;101159.75;5056592;28;20492;-77
2023/01/31 06:53:25;;;;;;;4.50;1.27;;;;;;;4.52;96.85;101165.47;5060578;28;20459;-78
2023/01/31 06:56:00;;;;;;;9.67;1.23;;;;;;;4.51;96.87;101160.31;5060483;28;20959;-78
2023/01/31 06:58:28;;;;;;;5.37;0.93;;;;;;;4.49;97.65;101159.75;5060744;28;20469;-78
2023/01/31 07:00:57;;;;;;;10.40;1.40;;;;;;;4.50;97.17;101161.38;5060310;28;20442;-78
2023/01/31 07:03:24;;;;;;;6.17;1.13;;;;;;;4.50;97.70;101154.16;5060472;28;20808;-78
2023/01/31 07:05:50;;;;;;;9.77;1.37;;;;;;;4.49;98.04;101152.53;5059174;28;20477;-79
2023/01/31 07:08:17;;;;;;;12.70;1.47;;;;;;;4.59;97.65;101153.72;5059751;28;20476;-78
2023/01/31 07:10:44;;;;;;;12.40;1.53;;;;;;;4.59;97.63;101146.50;5059052;28;20847;-79
2023/01/31 07:13:10;;;;;;;8.30;1.83;;;;;;;4.63;97.73;101138.75;5059942;28;20453;-78
2023/01/31 07:15:38;;;;;;;8.17;1.03;;;;;;;4.62;97.80;101170.16;5059362;28;20484;-78
2023/01/31 07:18:06;;;;;;;9.87;1.83;;;;;;;4.61;98.10;101155.13;5059102;28;20451;-78
2023/01/31 07:20:33;;;;;;;17.03;1.50;;;;;;;4.72;97.17;101159.56;5060877;28;20467;-78
2023/01/31 07:23:00;;;;;;;8.80;1.10;;;;;;;4.69;97.41;101162.75;5060880;28;20486;-79
2023/01/31 07:25:29;;;;;;;17.83;1.70;;;;;;;4.65;98.28;101161.63;5058859;28;20947;-78
2023/01/31 07:27:56;;;;;;;9.50;1.57;;;;;;;4.70;97.89;101153.63;5059265;28;20883;-78
2023/01/31 07:30:23;;;;;;;9.57;1.30;;;;;;;4.68;97.74;101152.25;5058372;28;20486;-79
2023/01/31 07:32:51;;;;;;;6.10;1.67;;;;;;;4.71;97.60;101157.94;5058432;28;20474;-78
2023/01/31 07:35:18;;;;;;;4.97;0.93;;;;;;;4.76;97.50;101159.88;5060056;28;20493;-78
2023/01/31 07:37:44;;;;;;;5.20;0.97;;;;;;;4.73;97.36;101142.38;5059148;28;20811;-78
2023/01/31 07:40:13;;;;;;;4.70;1.30;;;;;;;4.75;97.32;101148.31;5059612;28;20454;-78
2023/01/31 07:42:40;;;;;;;8.30;1.30;;;;;;;4.76;98.13;101149.13;5060205;28;20470;-78
2023/01/31 07:45:11;;;;;;;14.63;1.90;;;;;;;4.80;98.06;101155.63;5059368;28;20446;-78
2023/01/31 07:47:37;;;;;;;7.73;1.50;;;;;;;4.83;97.61;101155.16;5057978;28;20431;-77
2023/01/31 07:50:06;;;;;;;8.87;1.10;;;;;;;4.88;97.30;101151.72;5059314;28;20490;-78
2023/01/31 07:52:33;;;;;;;6.40;1.20;;;;;;;4.81;97.75;101149.19;5057005;28;20557;-79
2023/01/31 07:54:59;;;;;;;11.17;1.87;;;;;;;4.86;97.17;101151.94;5058564;28;20430;-78
2023/01/31 07:57:26;;;;;;;6.80;1.33;;;;;;;4.85;97.48;101153.00;5057700;28;20992;-78
2023/01/31 07:59:53;;;;;;;20.30;1.83;;;;;;;4.84;97.92;101145.22;5057391;28;20529;-78
2023/01/31 08:05:05;;;;;;;8.27;1.27;;;;;;;4.91;97.35;101133.22;5058141;28;20405;-78
2023/01/31 08:07:32;;;;;;;8.30;2.13;;;;;;;4.90;97.71;101136.97;5058056;28;20442;-79
2023/01/31 08:09:59;;;;;;;8.53;1.47;;;;;;;4.89;97.90;101148.78;5057988;28;20548;-78
2023/01/31 08:12:25;;;;;;;5.70;0.93;;;;;;;4.91;97.86;101135.09;5058275;28;20469;-79
2023/01/31 08:14:52;;;;;;;10.40;1.53;;;;;;;4.89;98.04;101148.78;5057062;28;20446;-79
2023/01/31 08:17:19;;;;;;;7.40;1.03;;;;;;;4.88;98.10;101131.06;5058507;28;20482;-78
2023/01/31 08:19:45;;;;;;;4.60;0.90;;;;;;;4.92;98.58;101129.50;5058404;28;20442;-78
2023/01/31 08:22:13;;;;;;;8.57;1.33;;;;;;;5.01;97.64;101136.06;5056833;28;20496;-79
2023/01/31 08:24:40;;;;;;;11.77;1.83;;;;;;;5.05;97.94;101131.00;5057489;28;20527;-78
2023/01/31 08:27:06;;;;;;;7.60;0.97;;;;;;;5.04;98.44;101118.59;5057062;28;20529;-79
2023/01/31 08:29:33;;;;;;;12.63;1.80;;;;;;;4.96;99.45;101121.75;5057826;28;20442;-79
2023/01/31 08:32:01;;;;;;;4.17;0.67;;;;;;;5.02;99.53;101126.13;5056890;28;20991;-78
2023/01/31 08:34:28;;;;;;;13.10;1.90;;;;;;;5.05;98.67;101115.69;5058100;28;20489;-78
2023/01/31 08:36:55;;;;;;;12.00;1.40;;;;;;;4.98;99.32;101112.38;5061852;28;20446;-79
2023/01/31 08:39:23;;;;;;;14.23;1.27;;;;;;;4.93;100.00;101122.25;5063282;28;20481;-78
2023/01/31 08:41:50;;;;;;;9.43;1.80;;;;;;;4.92;100.00;101115.25;5063187;28;20442;-78
2023/01/31 08:44:17;;;;;;;7.60;1.17;;;;;;;4.87;100.00;101112.50;5063091;28;20496;-79
2023/01/31 08:46:44;;;;;;;4.00;0.50;;;;;;;4.93;100.00;101123.06;5061804;28;20537;-78
2023/01/31 08:49:11;;;;;;;4.13;0.73;;;;;;;4.98;100.00;101111.56;5061732;28;20936;-78
2023/01/31 08:51:38;;;;;;;10.00;1.47;;;;;;;5.06;99.75;101116.50;5061435;28;20847;-79
2023/01/31 08:54:05;;;;;;;4.80;1.00;;;;;;;5.12;99.02;101102.06;5061288;28;20505;-78
2023/01/31 08:56:32;;;;;;;6.27;1.23;;;;;;;5.19;98.46;101107.25;5061635;28;20533;-79
2023/01/31 08:58:59;;;;;;;9.60;1.07;;;;;;;5.13;99.07;101105.56;5064502;28;20478;-78
2023/01/31 09:01:26;;;;;;;6.30;1.10;;;;;;;5.19;98.17;101108.06;5063178;28;20529;-78
2023/01/31 09:03:55;;;;;;;5.07;0.80;;;;;;;5.24;97.75;101096.56;5061994;28;20855;-80
2023/01/31 09:06:25;;;;;;;8.17;1.00;;;;;;;5.25;97.20;101104.34;5062162;28;20557;-79
2023/01/31 09:08:52;;;;;;;7.77;1.07;;;;;;;5.21;97.75;101099.75;5062217;28;20983;-79
2023/01/31 09:11:19;;;;;;;10.70;0.80;;;;;;;5.26;97.37;101089.84;5062201;28;20848;-78
2023/01/31 09:13:50;;;;;;;8.07;1.20;;;;;;;5.29;97.22;101097.41;5062022;28;20556;-78
2023/01/31 09:16:18;;;;;;;7.70;1.37;;;;;;;5.38;96.47;101089.72;5062373;28;20454;-78
2023/01/31 09:18:44;;;;;;;9.00;0.83;;;;;;;5.38;96.77;101076.28;5059208;28;20510;-78
2023/01/31 09:21:13;;;;;;;7.97;0.93;;;;;;;5.44;96.95;101083.31;5059862;28;20466;-78
2023/01/31 09:23:40;;;;;;;7.83;0.77;;;;;;;5.46;95.96;101083.88;5059927;28;20588;-78
2023/01/31 09:26:07;;;;;;;7.90;1.83;;;;;;;5.46;95.55;101078.50;5061417;28;20474;-78
2023/01/31 09:28:34;;;;;;;13.50;1.67;;;;;;;5.45;95.48;101070.72;5060813;28;21025;-78
2023/01/31 09:31:07;;;;;;;6.80;0.93;;;;;;;5.52;94.96;101074.00;5061046;28;20577;-78
2023/01/31 09:33:35;;;;;;;6.60;1.10;;;;;;;5.52;94.83;101074.00;5061162;28;20530;-78
2023/01/31 09:36:04;;;;;;;5.40;1.30;;;;;;;5.57;94.29;101069.47;5061327;28;20465;-78
2023/01/31 09:41:00;;;;;;;10.27;1.70;;;;;;;5.56;93.85;101065.16;5059273;22;21007;-68
2023/01/31 09:43:33;;;;;;;5.20;1.00;;;;;;;5.55;93.70;101062.75;5034938;28;20933;-67
2023/01/31 09:46:04;;;;;;;4.60;1.00;;;;;;;5.51;94.92;101059.75;5033931;28;20462;-67
2023/01/31 09:48:35;;;;;;;11.40;1.57;;;;;;;5.64;94.32;101055.84;5035154;28;20420;-67
2023/01/31 09:51:04;;;;;;;10.13;1.27;;;;;;;5.72;94.08;101057.25;5034994;28;20590;-67
2023/01/31 09:53:33;;;;;;;10.43;1.63;;;;;;;5.80;92.97;101046.84;5034980;28;20882;-67
2023/01/31 09:56:12;;;;;;;4.70;0.90;;;;;;;5.75;92.97;101046.75;5034939;28;20442;-67
2023/01/31 09:58:46;;;;;;;4.90;1.40;;;;;;;5.85;93.31;101043.38;5034712;28;20800;-67
2023/01/31 10:01:22;;;;;;;5.60;1.63;;;;;;;5.90;92.24;101040.72;5034773;28;20764;-67
2023/01/31 10:04:01;;;;;;;9.13;1.80;;;;;;;5.94;92.10;101030.28;5034809;28;20459;-68
2023/01/31 10:06:33;;;;;;;12.23;1.43;;;;;;;5.93;92.17;101023.28;5034876;28;20430;-67
2023/01/31 10:09:05;;;;;;;12.50;1.80;;;;;;;5.92;91.89;101021.66;5034806;28;20527;-68
2023/01/31 10:11:36;;;;;;;5.80;1.03;;;;;;;5.96;91.68;101030.81;5034616;28;20525;-68
2023/01/31 10:14:14;;;;;;;10.60;1.10;;;;;;;6.00;91.21;101021.16;5034684;28;20539;-68
2023/01/31 10:16:46;;;;;;;5.30;1.30;;;;;;;5.94;91.47;101017.66;5034763;28;20454;-68
2023/01/31 10:19:19;;;;;;;8.57;1.30;;;;;;;5.90;92.13;101019.19;5034430;28;20443;-67
2023/01/31 10:21:51;;;;;;;5.70;1.37;;;;;;;5.86;92.48;101017.28;5034160;28;20499;-67
2023/01/31 10:24:24;;;;;;;12.47;1.47;;;;;;;5.77;93.53;101009.72;5034536;28;20435;-68
2023/01/31 10:26:53;;;;;;;6.27;1.10;;;;;;;5.68;95.45;101010.44;5034320;28;20428;-68
2023/01/31 10:29:27;;;;;;;7.43;1.50;;;;;;;5.51;96.97;100997.16;5034237;28;20487;-68
2023/01/31 10:31:58;;;;;;;8.73;1.57;;;;;;;5.50;98.10;100982.09;5033776;28;21046;-68
2023/01/31 10:34:29;;;;;;;13.90;1.63;;;;;;;5.54;98.77;100977.84;5034244;28;20432;-68
2023/01/31 10:36:59;;;;;;;9.37;1.20;;;;;;;5.53;99.14;100977.03;5033793;28;20427;-67
2023/01/31 10:39:31;;;;;;;14.93;1.77;;;;;;;5.64;97.72;100966.34;5033723;28;20911;-67
2023/01/31 10:42:06;;;;;;;7.20;2.00;;;;;;;5.67;97.70;100968.53;5034034;28;20468;-68
2023/01/31 10:44:42;;;;;;;10.17;1.40;;;;;;;5.69;96.53;100972.56;5034098;28;20438;-68
2023/01/31 10:47:12;;;;;;;10.13;1.53;;;;;;;5.61;97.79;100959.59;5034078;28;20474;-67
2023/01/31 10:49:44;;;;;;;9.80;1.40;;;;;;;5.57;97.54;100955.81;5033620;28;20485;-67
2023/01/31 10:52:27;;;;;;;7.50;1.47;;;;;;;5.56;97.05;100949.63;5033908;28;20526;-68
2023/01/31 10:55:04;;;;;;;5.67;1.20;;;;;;;5.62;97.20;100944.28;5033901;28;20770;-68
2023/01/31 10:57:31;;;;;;;9.50;1.67;;;;;;;5.68;95.82;100936.00;5033515;28;20514;-68
2023/01/31 10:59:58;;;;;;;7.67;1.43;;;;;;;5.74;95.69;100926.09;5033759;28;20447;-68
2023/01/31 11:02:27;;;;;;;6.03;1.50;;;;;;;5.81;96.09;100924.78;5033766;28;20490;-68
2023/01/31 11:04:56;;;;;;;9.57;1.20;;;;;;;5.87;95.25;100919.44;5033388;28;20447;-68
2023/01/31 11:07:23;;;;;;;6.50;1.10;;;;;;;5.84;94.81;100918.06;5033374;28;21013;-68
2023/01/31 11:09:53;;;;;;;12.87;2.13;;;;;;;5.89;94.05;100912.75;5033632;28;20529;-68
2023/01/31 11:12:20;;;;;;;8.47;1.67;;;;;;;5.94;94.54;100912.81;5033502;28;20497;-68
2023/01/31 11:15:06;;;;;;;4.87;1.20;;;;;;;6.01;93.87;100912.53;5034007;28;20534;-68
2023/01/31 11:17:37;;;;;;;6.50;1.30;;;;;;;5.95;95.10;100897.47;5033406;28;20502;-68
2023/01/31 11:20:06;;;;;;;14.43;2.40;;;;;;;5.94;96.15;100891.28;5033785;28;20465;-68
2023/01/31 11:22:35;;;;;;;10.63;2.50;;;;;;;5.88;96.96;100888.78;5033458;28;20828;-68
2023/01/31 11:25:04;;;;;;;17.23;2.37;;;;;;;5.82;97.20;100877.22;5033243;28;20817;-68
2023/01/31 11:27:37;;;;;;;15.03;2.20;;;;;;;5.73;99.12;100882.28;5033470;28;20447;-67
2023/01/31 11:30:05;;;;;;;5.10;1.70;;;;;;;5.74;99.55;100866.97;5033078;28;20935;-68
2023/01/31 11:32:36;;;;;;;13.70;2.60;;;;;;;5.72;99.85;100867.22;5033383;28;20581;-67
2023/01/31 11:35:21;;;;;;;19.00;2.23;;;;;;;5.71;100.00;100859.41;5033392;28;20423;-69
2023/01/31 11:37:50;;;;;;;13.97;2.70;;;;;;;5.71;100.00;100849.50;5033247;28;20430;-68
2023/01/31 11:40:26;;;;;;;10.53;2.37;;;;;;;5.66;100.00;100841.38;5032909;28;20467;-68
2023/01/31 11:42:54;;;;;;;15.13;2.70;;;;;;;5.74;98.67;100838.19;5032863;28;20485;-68
2023/01/31 11:45:26;;;;;;;8.47;2.80;;;;;;;5.70;99.00;100831.72;5033339;28;20523;-68
2023/01/31 11:47:54;;;;;;;8.00;2.00;;;;;;;5.72;99.45;100826.94;5033445;28;20431;-69
2023/01/31 11:50:25;;;;;;;13.33;3.03;;;;;;;5.72;99.03;100818.06;5033346;28;20446;-68
2023/01/31 11:52:57;;;;;;;17.77;2.53;;;;;;;5.74;98.13;100824.78;5032956;28;20482;-68
2023/01/31 11:55:25;;;;;;;6.30;1.73;;;;;;;5.78;97.88;100801.66;5032810;28;20526;-69